Data for 10/30/2006

Time Sea-Level Adjusted Pressure Absolute Pressure Temperature Relative Humidity Dew Point   
(mb) (inHg) (mb) (inHg) (C) (F) (%) (C) (F)
00:05 1010 29.83 839 24.78 -5.4 22.3 94 -6.2 20.9
00:10 1010 29.83 839 24.78 -5.7 21.7 94 -6.6 20.1
00:15 1010 29.83 839 24.78 -6.2 20.9 94 -7 19.5
00:20 1011 29.85 840 24.81 -6.3 20.6 94 -7.1 19.2
00:25 1011 29.85 840 24.81 -6.3 20.6 95 -7 19.3
00:30 1011 29.85 840 24.81 -6.3 20.6 94 -7.1 19.3
00:35 1011 29.85 840 24.81 -6.5 20.3 94 -7.3 18.9
00:40 1011 29.85 841 24.83 -6.6 20.1 94 -7.4 18.6
00:45 1011 29.85 841 24.83 -6.7 19.9 94 -7.6 18.3
00:50 1011 29.85 841 24.83 -6.8 19.7 95 -7.5 18.4
00:55 1012 29.88 841 24.83 -6.8 19.8 93 -7.7 18.2
01:00 1012 29.88 841 24.83 -7 19.4 94 -7.9 17.9
01:05 1012 29.88 841 24.83 -7 19.4 94 -7.8 18
01:10 1012 29.88 841 24.83 -7 19.5 94 -7.7 18.1
01:15 1012 29.88 842 24.86 -7 19.5 94 -7.8 18
01:20 1012 29.88 842 24.86 -7 19.4 94 -7.8 18
01:25 1012 29.88 842 24.86 -7.2 19 93 -8.1 17.4
01:30 1013 29.91 842 24.86 -7.2 19 94 -8 17.6
01:35 1013 29.91 842 24.86 -7.2 19 95 -8 17.7
01:40 1013 29.91 842 24.86 -7.2 19 94 -8 17.6
01:45 1013 29.91 842 24.86 -7.3 18.9 94 -8.1 17.4
01:50 1013 29.91 842 24.86 -7.4 18.6 93 -8.3 17
01:55 1013 29.91 842 24.86 -7.6 18.4 93 -8.5 16.8
02:00 1013 29.91 842 24.86 -7.6 18.3 93 -8.5 16.6
02:05 1013 29.91 842 24.86 -7.7 18.2 93 -8.5 16.6
02:10 1013 29.91 842 24.86 -7.7 18.1 94 -8.6 16.6
02:15 1013 29.91 843 24.89 -7.7 18.1 93 -8.7 16.4
02:20 1014 29.94 843 24.89 -7.9 17.7 93 -8.9 16.1
02:25 1014 29.94 843 24.89 -8 17.7 93 -8.9 16
02:30 1014 29.94 843 24.89 -8.1 17.5 93 -9 15.9
02:35 1014 29.94 843 24.89 -8.1 17.4 92 -9.1 15.6
02:40 1014 29.94 843 24.89 -8.2 17.2 93 -9.2 15.4
02:45 1014 29.94 843 24.89 -8.3 17.1 93 -9.2 15.5
02:50 1014 29.94 843 24.89 -8.3 17 92 -9.4 15.1
02:55 1014 29.94 843 24.89 -8.4 16.8 93 -9.4 15.1
03:00 1014 29.94 843 24.89 -8.4 16.8 92 -9.5 15
03:05 1014 29.94 843 24.89 -8.5 16.8 93 -9.4 15
03:10 1014 29.94 843 24.89 -8.5 16.7 92 -9.5 14.9
03:15 1014 29.94 843 24.89 -8.5 16.7 92 -9.6 14.8
03:20 1014 29.94 844 24.92 -8.5 16.7 93 -9.5 14.9
03:25 1014 29.94 844 24.92 -8.6 16.6 92 -9.7 14.6
03:30 1014 29.94 844 24.92 -8.8 16.1 92 -9.9 14.2
03:35 1014 29.94 844 24.92 -9.1 15.7 92 -10.1 13.8
03:40 1014 29.94 844 24.92 -9.1 15.6 92 -10.1 13.8
03:45 1014 29.94 844 24.92 -9.1 15.6 92 -10.2 13.7
03:50 1015 29.97 844 24.92 -9.2 15.4 92 -10.3 13.5
03:55 1015 29.97 844 24.92 -9.3 15.4 92 -10.4 13.3
04:00 1015 29.97 844 24.92 -9.2 15.5 92 -10.3 13.5
04:05 1015 29.97 844 24.92 -9.1 15.7 91 -10.3 13.5
04:10 1015 29.97 844 24.92 -9 15.7 90 -10.4 13.3
04:15 1015 29.97 844 24.92 -9 15.8 90 -10.4 13.3
04:20 1015 29.97 844 24.92 -9.1 15.5 88 -10.8 12.5
04:25 1015 29.97 844 24.92 -9.3 15.2 89 -10.9 12.4
04:30 1015 29.97 844 24.92 -9.4 15.2 89 -10.8 12.5
04:35 1015 29.97 844 24.92 -9.3 15.3 89 -10.8 12.6
04:40 1015 29.97 844 24.92 -9.3 15.3 86 -11.2 11.8
04:45 1015 29.97 844 24.92 -9.4 15 88 -11.1 12.1
04:50 1015 29.97 845 24.95 -9.4 15.2 87 -11.1 12
04:55 1015 29.97 845 24.95 -9.6 14.8 87 -11.3 11.6
05:00 1016 30 845 24.95 -9.5 14.8 86 -11.5 11.2
05:05 1016 30 845 24.95 -9.7 14.6 86 -11.6 11.1
05:10 1016 30 845 24.95 -9.7 14.5 86 -11.7 10.9
05:15 1016 30 845 24.95 -10 14 86 -11.9 10.6
05:20 1016 30 845 24.95 -10.1 13.9 86 -11.9 10.6
05:25 1016 30 845 24.95 -10 14 86 -11.9 10.6
05:30 1016 30 845 24.95 -9.9 14.3 85 -11.9 10.6
05:35 1016 30 845 24.95 -9.9 14.3 86 -11.8 10.7
05:40 1016 30 845 24.95 -9.9 14.2 85 -11.9 10.6
05:45 1016 30 845 24.95 -9.9 14.2 87 -11.7 10.9
05:50 1016 30 845 24.95 -9.9 14.1 86 -11.8 10.8
05:55 1016 30 845 24.95 -10 13.9 85 -12.1 10.3
06:00 1016 30 846 24.98 -10.1 13.9 86 -12 10.5
06:05 1016 30 846 24.98 -10 14 85 -12.1 10.3
06:10 1016 30 846 24.98 -10.1 13.8 86 -12.1 10.2
06:15 1017 30.03 846 24.98 -10.2 13.6 87 -12 10.5
06:20 1017 30.03 846 24.98 -10.1 13.8 87 -11.9 10.5
06:25 1017 30.03 846 24.98 -10.2 13.7 85 -12.1 10.1
06:30 1017 30.03 846 24.98 -10.3 13.5 87 -12 10.3
06:35 1017 30.03 846 24.98 -10.3 13.6 88 -11.9 10.7
06:40 1017 30.03 846 24.98 -10 13.9 87 -11.8 10.7
06:45 1017 30.03 846 24.98 -10 14.1 87 -11.8 10.8
06:50 1017 30.03 846 24.98 -10 14 85 -12 10.4
06:55 1017 30.03 846 24.98 -10.1 13.7 86 -12 10.4
07:00 1017 30.03 846 24.98 -10.3 13.6 86 -12.1 10.2
07:05 1017 30.03 846 24.98 -10.4 13.3 87 -12.2 10
07:10 1017 30.03 846 24.98 -10.3 13.5 85 -12.3 9.9
07:15 1017 30.03 846 24.98 -10.3 13.6 85 -12.4 9.8
07:20 1017 30.03 846 24.98 -10.2 13.6 85 -12.3 9.9
07:25 1017 30.03 847 25.01 -10.4 13.3 86 -12.3 9.8
07:30 1018 30.06 847 25.01 -10.3 13.4 87 -12 10.3
07:35 1018 30.06 847 25.01 -10 14 85 -12.1 10.3
07:40 1018 30.06 847 25.01 -10.2 13.7 84 -12.4 9.7
07:45 1018 30.06 847 25.01 -10.4 13.4 86 -12.2 10
07:50 1018 30.06 847 25.01 -10.2 13.6 84 -12.5 9.6
07:55 1018 30.06 847 25.01 -10.2 13.7 85 -12.2 10
08:00 1018 30.06 847 25.01 -10.2 13.6 85 -12.3 9.9
08:05 1018 30.06 847 25.01 -10.3 13.5 85 -12.4 9.7
08:10 1018 30.06 847 25.01 -10.1 13.7 85 -12.2 10
08:15 1018 30.06 847 25.01 -10.1 13.8 84 -12.3 9.8
08:20 1018 30.06 847 25.01 -10.2 13.7 86 -12.1 10.3
08:25 1018 30.06 847 25.01 -9.8 14.3 84 -12.1 10.2
08:30 1018 30.06 847 25.01 -10.2 13.7 84 -12.4 9.7
08:35 1018 30.06 847 25.01 -10.5 13.2 85 -12.5 9.4
08:40 1018 30.06 847 25.01 -10.2 13.6 83 -12.6 9.4
08:45 1018 30.06 847 25.01 -10.1 13.9 83 -12.4 9.7
08:50 1018 30.06 847 25.01 -9.4 15 82 -11.9 10.5
08:55 1018 30.06 847 25.01 -9.2 15.4 81 -11.9 10.6
09:00 1018 30.06 848 25.04 -9.4 15.1 81 -12.1 10.1
09:05 1018 30.06 848 25.04 -9.3 15.3 80 -12.2 10.1
09:10 1018 30.06 848 25.04 -9.1 15.7 79 -12 10.4
09:15 1018 30.06 848 25.04 -9 15.8 78 -12.2 10
09:20 1018 30.06 848 25.04 -8.9 15.9 78 -12.1 10.2
09:25 1018 30.06 848 25.04 -8.8 16.1 75 -12.4 9.6
09:30 1019 30.09 848 25.04 -9 15.8 76 -12.5 9.5
09:35 1019 30.09 848 25.04 -8.9 16 77 -12.3 9.9
09:40 1019 30.09 848 25.04 -8.7 16.4 75 -12.3 9.9
09:45 1019 30.09 848 25.04 -8.7 16.4 75 -12.4 9.7
09:50 1019 30.09 848 25.04 -8.7 16.4 74 -12.6 9.4
09:55 1019 30.09 848 25.04 -8.5 16.8 74 -12.3 9.8
10:00 1019 30.09 848 25.04 -8.1 17.4 72 -12.4 9.7
10:05 1019 30.09 848 25.04 -8 17.6 72 -12.2 10
10:10 1019 30.09 848 25.04 -8 17.6 71 -12.5 9.6
10:15 1019 30.09 848 25.04 -7.9 17.8 68 -12.8 8.9
10:20 1019 30.09 848 25.04 -7.8 17.9 65 -13.4 7.9
10:25 1019 30.09 848 25.04 -8.6 16.5 68 -13.6 7.6
10:30 1019 30.09 848 25.04 -8.3 17.1 71 -12.7 9.2
10:35 1019 30.09 848 25.04 -7.8 18 71 -12.2 10
10:40 1019 30.09 848 25.04 -7.9 17.9 70 -12.3 9.8
10:45 1019 30.09 848 25.04 -8.1 17.4 73 -12.1 10.2
10:50 1019 30.09 848 25.04 -7.7 18.1 69 -12.4 9.7
10:55 1019 30.09 848 25.04 -7.6 18.3 69 -12.3 9.9
11:00 1019 30.09 848 25.04 -7.6 18.4 69 -12.3 9.9
11:05 1019 30.09 848 25.04 -8 17.7 71 -12.4 9.7
11:10 1019 30.09 848 25.04 -7.9 17.7 70 -12.5 9.6
11:15 1019 30.09 848 25.04 -8 17.7 70 -12.5 9.6
11:20 1019 30.09 848 25.04 -8 17.6 69 -12.8 9
11:25 1019 30.09 848 25.04 -7.5 18.5 67 -12.5 9.5
11:30 1019 30.09 848 25.04 -7.6 18.4 67 -12.8 9
11:35 1019 30.09 848 25.04 -8.1 17.4 65 -13.5 7.7
11:40 1019 30.09 848 25.04 -8.5 16.6 68 -13.4 7.9
11:45 1019 30.09 848 25.04 -7.7 18.2 65 -13.2 8.3
11:50 1019 30.09 848 25.04 -7.5 18.6 63 -13.3 8.1
11:55 1019 30.09 848 25.04 -8 17.7 66 -13.2 8.3
12:00 1019 30.09 848 25.04 -8.2 17.3 65 -13.6 7.5
12:05 1019 30.09 848 25.04 -8.3 17.2 69 -13 8.7
12:10 1019 30.09 848 25.04 -7.8 18 66 -13.1 8.4
12:15 1019 30.09 848 25.04 -7.7 18.1 66 -13 8.5
12:20 1019 30.09 848 25.04 -8.4 16.8 68 -13.3 8
12:25 1019 30.09 848 25.04 -8.8 16.1 72 -13.1 8.4
12:30 1019 30.09 848 25.04 -8.4 17 70 -12.9 8.8
12:35 1019 30.09 848 25.04 -8.6 16.6 70 -13.1 8.4
12:40 1019 30.09 848 25.04 -8.9 15.9 76 -12.4 9.7
12:45 1019 30.09 848 25.04 -9.4 15.1 77 -12.7 9.1
12:50 1019 30.09 848 25.04 -9.6 14.8 78 -12.7 9.1
12:55 1019 30.09 848 25.04 -9.2 15.5 78 -12.3 9.8
13:00 1019 30.09 848 25.04 -8.7 16.3 75 -12.3 9.8
13:05 1019 30.09 848 25.04 -8.3 17 75 -12 10.5
13:10 1019 30.09 848 25.04 -8 17.6 75 -11.7 10.9
13:15 1019 30.09 848 25.04 -8.5 16.8 76 -11.9 10.5
13:20 1019 30.09 848 25.04 -8.2 17.3 76 -11.7 11
13:25 1019 30.09 848 25.04 -7.8 18.1 77 -11 12.1
13:30 1019 30.09 848 25.04 -7.9 17.8 79 -11 12.3
13:35 1019 30.09 848 25.04 -7.3 18.8 74 -11.2 11.9
13:40 1019 30.09 848 25.04 -6.3 20.6 70 -10.9 12.3
13:45 1019 30.09 848 25.04 -5.9 21.4 67 -11 12.1
13:50 1019 30.09 849 25.07 -6.3 20.7 69 -11 12.2
13:55 1019 30.09 849 25.07 -6.8 19.7 71 -11.2 11.8
14:00 1019 30.09 849 25.07 -7.3 18.8 74 -11.2 11.9
14:05 1019 30.09 849 25.07 -7.2 19 72 -11.4 11.5
14:10 1019 30.09 849 25.07 -6 21.2 65 -11.6 11.1
14:15 1019 30.09 849 25.07 -5.8 21.6 63 -11.8 10.7
14:20 1019 30.09 849 25.07 -5.6 21.8 63 -11.6 11.1
14:25 1019 30.09 849 25.07 -6 21.2 64 -11.8 10.7
14:30 1019 30.09 849 25.07 -6.4 20.5 64 -12.1 10.2
14:35 1019 30.09 849 25.07 -6.6 20.1 63 -12.5 9.4
14:40 1019 30.09 849 25.07 -7.1 19.2 66 -12.4 9.7
14:45 1019 30.09 849 25.07 -7.7 18.2 69 -12.4 9.7
14:50 1019 30.09 849 25.07 -7.8 18 68 -12.7 9.2
14:55 1019 30.09 849 25.07 -8 17.5 69 -12.7 9.2
15:00 1020 30.12 849 25.07 -8.2 17.3 68 -13.1 8.5
15:05 1020 30.12 849 25.07 -8.1 17.5 67 -13.2 8.3
15:10 1020 30.12 849 25.07 -7.8 18 66 -13 8.6
15:15 1020 30.12 849 25.07 -7.2 19.1 64 -12.9 8.8
15:20 1020 30.12 849 25.07 -7.2 19.1 64 -12.9 8.7
15:25 1020 30.12 849 25.07 -7.8 18 65 -13.3 8.1
15:30 1020 30.12 849 25.07 -7.6 18.4 63 -13.4 7.8
15:35 1020 30.12 849 25.07 -7.1 19.2 63 -13.1 8.5
15:40 1020 30.12 849 25.07 -6.6 20.1 62 -12.7 9.1
15:45 1020 30.12 849 25.07 -6.7 20 60 -13.3 8.1
15:50 1020 30.12 849 25.07 -7.5 18.5 64 -13.1 8.4
15:55 1020 30.12 849 25.07 -8.2 17.2 67 -13.3 8.1
16:00 1020 30.12 849 25.07 -7.5 18.6 64 -13.2 8.3
16:05 1020 30.12 849 25.07 -7.3 19 64 -12.9 8.8
16:10 1020 30.12 849 25.07 -7.1 19.2 63 -13 8.6
16:15 1020 30.12 849 25.07 -7.6 18.4 65 -13.1 8.5
16:20 1020 30.12 849 25.07 -8 17.7 68 -12.9 8.7
16:25 1020 30.12 849 25.07 -7.4 18.7 65 -13 8.7
16:30 1020 30.12 849 25.07 -6.9 19.6 63 -12.7 9.1
16:35 1020 30.12 849 25.07 -7 19.3 63 -12.8 8.9
16:40 1020 30.12 849 25.07 -7.5 18.5 64 -13.1 8.4
16:45 1020 30.12 849 25.07 -7.4 18.7 64 -13.1 8.5
16:50 1020 30.12 849 25.07 -7.6 18.4 66 -12.9 8.8
16:55 1020 30.12 849 25.07 -7.4 18.7 64 -13.1 8.4
17:00 1020 30.12 849 25.07 -8 17.7 67 -13 8.6
17:05 1020 30.12 849 25.07 -8.6 16.6 70 -13.1 8.5
17:10 1020 30.12 849 25.07 -8.7 16.3 70 -13.2 8.3
17:15 1020 30.12 849 25.07 -9 15.8 71 -13.3 8.1
17:20 1020 30.12 849 25.07 -9.1 15.6 72 -13.4 8
17:25 1020 30.12 849 25.07 -9.2 15.5 72 -13.4 7.9
17:30 1020 30.12 849 25.07 -9.3 15.3 74 -13.2 8.3
17:35 1020 30.12 849 25.07 -9.5 15 77 -12.9 8.8
17:40 1020 30.12 849 25.07 -9.5 14.8 76 -13 8.6
17:45 1020 30.12 849 25.07 -9.6 14.7 75 -13.2 8.3
17:50 1020 30.12 849 25.07 -10.5 13 80 -13.3 8.1
17:55 1020 30.12 849 25.07 -11 12.2 82 -13.6 7.6
18:00 1020 30.12 849 25.07 -11.1 11.9 82 -13.6 7.5
18:05 1020 30.12 849 25.07 -11 12.2 81 -13.7 7.4
18:10 1020 30.12 849 25.07 -11.4 11.5 82 -13.9 7
18:15 1020 30.12 849 25.07 -11.7 11 82 -14.2 6.5
18:20 1020 30.12 849 25.07 -11.6 11.2 81 -14.2 6.5
18:25 1020 30.12 849 25.07 -11.6 11 81 -14.3 6.3
18:30 1020 30.12 849 25.07 -11.7 10.9 81 -14.4 6.1
18:35 1020 30.12 849 25.07 -12 10.3 82 -14.4 6
18:40 1020 30.12 849 25.07 -12.2 10.1 83 -14.5 5.9
18:45 1020 30.12 849 25.07 -12.2 10.1 82 -14.7 5.6
18:50 1020 30.12 849 25.07 -12.3 9.9 82 -14.7 5.5
18:55 1020 30.12 849 25.07 -12.5 9.6 83 -14.8 5.4
19:00 1020 30.12 849 25.07 -12.9 8.8 82 -15.4 4.3
19:05 1020 30.12 849 25.07 -13.3 8.1 84 -15.4 4.3
19:10 1020 30.12 849 25.07 -13.4 7.9 84 -15.5 4
19:15 1020 30.12 849 25.07 -13.3 8 85 -15.4 4.3
19:20 1020 30.12 849 25.07 -13.1 8.5 81 -15.6 3.9
19:25 1020 30.12 849 25.07 -13.6 7.6 83 -15.8 3.6
19:30 1020 30.12 849 25.07 -13.7 7.4 85 -15.7 3.7
19:35 1020 30.12 849 25.07 -13.5 7.7 83 -15.7 3.7
19:40 1020 30.12 850 25.1 -13.6 7.5 83 -15.9 3.4
19:45 1020 30.12 850 25.1 -13.8 7.1 84 -15.9 3.4
19:50 1020 30.12 849 25.07 -13.6 7.5 84 -15.7 3.7
19:55 1020 30.12 849 25.07 -13.3 8.1 84 -15.4 4.2
20:00 1020 30.12 849 25.07 -13.2 8.3 83 -15.5 4.1
20:05 1020 30.12 849 25.07 -13.1 8.4 82 -15.5 4.1
20:10 1020 30.12 849 25.07 -13.2 8.2 83 -15.5 4
20:15 1020 30.12 849 25.07 -13.3 8.1 83 -15.6 4
20:20 1020 30.12 849 25.07 -13.3 8 83 -15.6 3.9
20:25 1020 30.12 849 25.07 -13.5 7.8 83 -15.7 3.7
20:30 1020 30.12 849 25.07 -13.7 7.4 84 -15.8 3.5
20:35 1020 30.12 849 25.07 -13.6 7.5 84 -15.8 3.6
20:40 1020 30.12 849 25.07 -13.8 7.2 84 -16 3.3
20:45 1020 30.12 849 25.07 -13.9 7.1 84 -16 3.3
20:50 1020 30.12 849 25.07 -13.8 7.2 84 -15.9 3.4
20:55 1020 30.12 849 25.07 -13.7 7.3 84 -15.9 3.5
21:00 1020 30.12 849 25.07 -13.7 7.3 84 -15.9 3.4
21:05 1020 30.12 849 25.07 -13.6 7.6 83 -15.9 3.4
21:10 1020 30.12 849 25.07 -13.6 7.6 83 -15.9 3.3
21:15 1020 30.12 849 25.07 -13.4 7.9 83 -15.7 3.8
21:20 1020 30.12 849 25.07 -13.4 7.9 83 -15.7 3.7
21:25 1020 30.12 849 25.07 -13.6 7.5 82 -16 3.2
21:30 1020 30.12 849 25.07 -13.7 7.3 83 -16 3.2
21:35 1020 30.12 849 25.07 -13.8 7.1 83 -16.1 3
21:40 1020 30.12 849 25.07 -13.9 6.9 84 -16 3.2
21:45 1020 30.12 849 25.07 -13.8 7.2 83 -16.1 3.1
21:50 1020 30.12 849 25.07 -13.6 7.4 83 -16 3.3
21:55 1020 30.12 849 25.07 -14.1 6.6 84 -16.3 2.7
22:00 1020 30.12 849 25.07 -14.1 6.7 84 -16.2 2.9
22:05 1020 30.12 849 25.07 -14 6.7 84 -16.2 2.8
22:10 1020 30.12 849 25.07 -14.1 6.6 85 -16.2 2.8
22:15 1020 30.12 849 25.07 -14 6.8 84 -16.1 3
22:20 1020 30.12 849 25.07 -13.9 7 84 -16 3.1
22:25 1020 30.12 849 25.07 -13.7 7.4 83 -16 3.2
22:30 1020 30.12 849 25.07 -13.6 7.5 83 -15.8 3.5
22:35 1020 30.12 849 25.07 -13.7 7.4 83 -15.9 3.3
22:40 1020 30.12 849 25.07 -13.5 7.8 83 -15.8 3.6
22:45 1020 30.12 849 25.07 -13.3 8.1 83 -15.6 3.9
22:50 1019 30.09 849 25.07 -13.2 8.2 82 -15.7 3.8
22:55 1019 30.09 849 25.07 -13.2 8.2 82 -15.7 3.8
23:00 1019 30.09 849 25.07 -13.6 7.5 82 -16 3.1
23:05 1019 30.09 849 25.07 -14.1 6.6 84 -16.2 2.8
23:10 1019 30.09 849 25.07 -13.7 7.3 84 -15.9 3.4
23:15 1019 30.09 849 25.07 -13.5 7.8 82 -15.9 3.4
23:20 1019 30.09 848 25.04 -13.7 7.3 84 -15.8 3.5
23:25 1019 30.09 848 25.04 -13.6 7.6 84 -15.7 3.7
23:30 1019 30.09 848 25.04 -13.3 8 83 -15.7 3.8
23:35 1019 30.09 848 25.04 -13.3 8.1 82 -15.7 3.7
23:40 1019 30.09 848 25.04 -13.4 7.8 83 -15.7 3.7
23:45 1019 30.09 848 25.04 -13.5 7.6 83 -15.8 3.5
23:50 1019 30.09 848 25.04 -13.6 7.5 83 -15.9 3.4
23:55 1019 30.09 848 25.04 -13.8 7.3 85 -15.8 3.6
24:00 1019 30.09 848 25.04 -13.5 7.6 84 -15.7 3.7